sensor_id;sensor_type;location;lat;lon;timestamp;temperature;humidity
27858;DHT22;16852;51.446;6.528;2023-06-14T00:01:16;22.60;66.40
27858;DHT22;16852;51.446;6.528;2023-06-14T00:03:17;22.60;66.90
27858;DHT22;16852;51.446;6.528;2023-06-14T00:05:17;22.50;67.20
27858;DHT22;16852;51.446;6.528;2023-06-14T00:07:22;22.50;66.90
27858;DHT22;16852;51.446;6.528;2023-06-14T00:09:33;22.50;66.10
27858;DHT22;16852;51.446;6.528;2023-06-14T00:11:34;22.40;65.90
27858;DHT22;16852;51.446;6.528;2023-06-14T00:13:34;22.40;65.90
27858;DHT22;16852;51.446;6.528;2023-06-14T00:15:35;22.30;65.70
27858;DHT22;16852;51.446;6.528;2023-06-14T00:17:36;22.30;65.80
27858;DHT22;16852;51.446;6.528;2023-06-14T00:19:39;22.30;66.20
27858;DHT22;16852;51.446;6.528;2023-06-14T00:21:40;22.30;67.10
27858;DHT22;16852;51.446;6.528;2023-06-14T00:23:42;22.30;69.00
27858;DHT22;16852;51.446;6.528;2023-06-14T00:25:42;22.30;67.90
27858;DHT22;16852;51.446;6.528;2023-06-14T00:27:43;22.30;66.20
27858;DHT22;16852;51.446;6.528;2023-06-14T00:29:43;22.20;65.90
27858;DHT22;16852;51.446;6.528;2023-06-14T00:31:44;22.20;66.30
27858;DHT22;16852;51.446;6.528;2023-06-14T00:33:44;22.20;68.20
27858;DHT22;16852;51.446;6.528;2023-06-14T00:35:45;22.10;67.30
27858;DHT22;16852;51.446;6.528;2023-06-14T00:37:47;22.20;67.10
27858;DHT22;16852;51.446;6.528;2023-06-14T00:39:47;22.10;67.80
27858;DHT22;16852;51.446;6.528;2023-06-14T00:41:48;22.20;67.50
27858;DHT22;16852;51.446;6.528;2023-06-14T00:43:49;22.10;67.30
27858;DHT22;16852;51.446;6.528;2023-06-14T00:45:49;22.10;68.00
27858;DHT22;16852;51.446;6.528;2023-06-14T00:47:51;22.10;66.50
27858;DHT22;16852;51.446;6.528;2023-06-14T00:49:56;22.10;66.10
27858;DHT22;16852;51.446;6.528;2023-06-14T00:51:57;22.00;66.50
27858;DHT22;16852;51.446;6.528;2023-06-14T00:53:57;22.10;65.90
27858;DHT22;16852;51.446;6.528;2023-06-14T00:55:58;22.00;65.70
27858;DHT22;16852;51.446;6.528;2023-06-14T00:57:58;22.00;65.70
27858;DHT22;16852;51.446;6.528;2023-06-14T00:59:59;22.00;65.50
27858;DHT22;16852;51.446;6.528;2023-06-14T01:02:00;22.00;65.70
27858;DHT22;16852;51.446;6.528;2023-06-14T01:04:01;21.90;65.40
27858;DHT22;16852;51.446;6.528;2023-06-14T01:08:26;21.80;65.90
27858;DHT22;16852;51.446;6.528;2023-06-14T01:10:47;21.80;66.20
27858;DHT22;16852;51.446;6.528;2023-06-14T01:13:11;21.70;66.40
27858;DHT22;16852;51.446;6.528;2023-06-14T01:15:13;21.60;66.30
27858;DHT22;16852;51.446;6.528;2023-06-14T01:17:14;21.50;66.40
27858;DHT22;16852;51.446;6.528;2023-06-14T01:19:17;21.40;67.00
27858;DHT22;16852;51.446;6.528;2023-06-14T01:21:25;21.40;67.20
27858;DHT22;16852;51.446;6.528;2023-06-14T01:23:25;21.30;67.40
27858;DHT22;16852;51.446;6.528;2023-06-14T01:25:32;21.10;67.40
27858;DHT22;16852;51.446;6.528;2023-06-14T01:27:33;20.90;68.30
27858;DHT22;16852;51.446;6.528;2023-06-14T01:29:38;20.70;68.70
27858;DHT22;16852;51.446;6.528;2023-06-14T01:31:39;20.60;69.40
27858;DHT22;16852;51.446;6.528;2023-06-14T01:33:41;20.60;69.40
27858;DHT22;16852;51.446;6.528;2023-06-14T01:35:46;20.50;69.90
27858;DHT22;16852;51.446;6.528;2023-06-14T01:37:48;20.50;69.90
27858;DHT22;16852;51.446;6.528;2023-06-14T01:39:49;20.50;69.80
27858;DHT22;16852;51.446;6.528;2023-06-14T01:41:51;20.50;69.60
27858;DHT22;16852;51.446;6.528;2023-06-14T01:43:52;20.50;69.40
27858;DHT22;16852;51.446;6.528;2023-06-14T01:45:55;20.40;69.70
27858;DHT22;16852;51.446;6.528;2023-06-14T01:47:56;20.40;69.80
27858;DHT22;16852;51.446;6.528;2023-06-14T01:49:57;20.40;70.20
27858;DHT22;16852;51.446;6.528;2023-06-14T01:51:58;20.30;70.20
27858;DHT22;16852;51.446;6.528;2023-06-14T01:53:59;20.00;70.50
27858;DHT22;16852;51.446;6.528;2023-06-14T01:56:00;19.80;71.10
27858;DHT22;16852;51.446;6.528;2023-06-14T01:58:01;19.80;71.50
27858;DHT22;16852;51.446;6.528;2023-06-14T02:00:03;19.80;71.60
27858;DHT22;16852;51.446;6.528;2023-06-14T02:02:04;19.70;71.50
27858;DHT22;16852;51.446;6.528;2023-06-14T02:04:05;19.70;71.30
27858;DHT22;16852;51.446;6.528;2023-06-14T02:06:06;19.50;71.10
27858;DHT22;16852;51.446;6.528;2023-06-14T02:08:06;19.50;71.40
27858;DHT22;16852;51.446;6.528;2023-06-14T02:10:07;19.40;71.70
27858;DHT22;16852;51.446;6.528;2023-06-14T02:12:09;19.50;71.70
27858;DHT22;16852;51.446;6.528;2023-06-14T02:14:11;19.50;71.70
27858;DHT22;16852;51.446;6.528;2023-06-14T02:16:12;19.50;72.10
27858;DHT22;16852;51.446;6.528;2023-06-14T02:18:13;19.50;72.10
27858;DHT22;16852;51.446;6.528;2023-06-14T02:20:13;19.50;72.00
27858;DHT22;16852;51.446;6.528;2023-06-14T02:22:15;19.60;72.30
27858;DHT22;16852;51.446;6.528;2023-06-14T02:24:16;19.60;71.50
27858;DHT22;16852;51.446;6.528;2023-06-14T02:26:16;19.60;71.70
27858;DHT22;16852;51.446;6.528;2023-06-14T02:28:17;19.70;71.40
27858;DHT22;16852;51.446;6.528;2023-06-14T02:30:18;19.70;71.80
27858;DHT22;16852;51.446;6.528;2023-06-14T02:32:18;19.70;71.60
27858;DHT22;16852;51.446;6.528;2023-06-14T02:34:19;19.80;71.60
27858;DHT22;16852;51.446;6.528;2023-06-14T02:36:22;19.80;70.90
27858;DHT22;16852;51.446;6.528;2023-06-14T02:38:22;19.80;70.70
27858;DHT22;16852;51.446;6.528;2023-06-14T02:40:23;19.80;70.50
27858;DHT22;16852;51.446;6.528;2023-06-14T02:42:24;19.80;70.50
27858;DHT22;16852;51.446;6.528;2023-06-14T02:44:25;19.70;70.60
27858;DHT22;16852;51.446;6.528;2023-06-14T02:46:27;19.70;72.00
27858;DHT22;16852;51.446;6.528;2023-06-14T02:48:28;19.70;71.20
27858;DHT22;16852;51.446;6.528;2023-06-14T02:50:28;19.70;71.10
27858;DHT22;16852;51.446;6.528;2023-06-14T02:52:30;19.60;70.80
27858;DHT22;16852;51.446;6.528;2023-06-14T02:54:33;19.60;70.60
27858;DHT22;16852;51.446;6.528;2023-06-14T02:56:34;19.50;71.20
27858;DHT22;16852;51.446;6.528;2023-06-14T02:58:36;19.50;71.50
27858;DHT22;16852;51.446;6.528;2023-06-14T03:00:37;19.40;71.80
27858;DHT22;16852;51.446;6.528;2023-06-14T03:02:38;19.30;71.80
27858;DHT22;16852;51.446;6.528;2023-06-14T03:04:39;19.30;72.10
27858;DHT22;16852;51.446;6.528;2023-06-14T03:06:40;19.30;71.80
27858;DHT22;16852;51.446;6.528;2023-06-14T03:08:40;19.20;71.80
27858;DHT22;16852;51.446;6.528;2023-06-14T03:10:51;19.20;72.10
27858;DHT22;16852;51.446;6.528;2023-06-14T03:12:51;19.10;72.30
27858;DHT22;16852;51.446;6.528;2023-06-14T03:14:52;19.00;72.20
27858;DHT22;16852;51.446;6.528;2023-06-14T03:16:53;19.00;72.50
27858;DHT22;16852;51.446;6.528;2023-06-14T03:18:57;19.00;72.60
27858;DHT22;16852;51.446;6.528;2023-06-14T03:20:57;19.00;72.60
27858;DHT22;16852;51.446;6.528;2023-06-14T03:23:04;19.00;72.40
27858;DHT22;16852;51.446;6.528;2023-06-14T03:25:06;19.00;72.70
27858;DHT22;16852;51.446;6.528;2023-06-14T03:27:07;18.90;72.40
27858;DHT22;16852;51.446;6.528;2023-06-14T03:29:10;18.90;72.90
27858;DHT22;16852;51.446;6.528;2023-06-14T03:31:11;18.80;72.80
27858;DHT22;16852;51.446;6.528;2023-06-14T03:33:12;18.80;73.00
27858;DHT22;16852;51.446;6.528;2023-06-14T03:35:12;18.80;73.30
27858;DHT22;16852;51.446;6.528;2023-06-14T03:37:17;18.70;73.40
27858;DHT22;16852;51.446;6.528;2023-06-14T03:39:18;18.70;73.50
27858;DHT22;16852;51.446;6.528;2023-06-14T03:41:18;18.70;73.30
27858;DHT22;16852;51.446;6.528;2023-06-14T03:43:19;18.70;73.30
27858;DHT22;16852;51.446;6.528;2023-06-14T03:45:20;18.70;73.50
27858;DHT22;16852;51.446;6.528;2023-06-14T03:47:21;18.70;73.70
27858;DHT22;16852;51.446;6.528;2023-06-14T03:49:21;18.70;73.70
27858;DHT22;16852;51.446;6.528;2023-06-14T03:51:22;18.70;73.50
27858;DHT22;16852;51.446;6.528;2023-06-14T03:53:23;18.80;73.60
27858;DHT22;16852;51.446;6.528;2023-06-14T03:55:23;18.80;73.40
27858;DHT22;16852;51.446;6.528;2023-06-14T03:57:25;18.80;73.60
27858;DHT22;16852;51.446;6.528;2023-06-14T03:59:26;18.90;74.20
27858;DHT22;16852;51.446;6.528;2023-06-14T04:01:27;18.90;73.60
27858;DHT22;16852;51.446;6.528;2023-06-14T04:03:29;18.90;73.40
27858;DHT22;16852;51.446;6.528;2023-06-14T04:05:30;18.90;74.20
27858;DHT22;16852;51.446;6.528;2023-06-14T04:07:31;19.00;74.20
27858;DHT22;16852;51.446;6.528;2023-06-14T04:09:32;19.00;74.60
27858;DHT22;16852;51.446;6.528;2023-06-14T04:11:32;19.00;75.40
27858;DHT22;16852;51.446;6.528;2023-06-14T04:13:33;19.10;75.70
27858;DHT22;16852;51.446;6.528;2023-06-14T04:15:35;19.10;76.00
27858;DHT22;16852;51.446;6.528;2023-06-14T04:17:38;19.20;76.30
27858;DHT22;16852;51.446;6.528;2023-06-14T04:19:38;19.20;76.30
27858;DHT22;16852;51.446;6.528;2023-06-14T04:21:39;19.30;75.90
27858;DHT22;16852;51.446;6.528;2023-06-14T04:23:40;19.40;76.20
27858;DHT22;16852;51.446;6.528;2023-06-14T04:25:44;19.40;76.20
27858;DHT22;16852;51.446;6.528;2023-06-14T04:27:49;19.50;75.80
27858;DHT22;16852;51.446;6.528;2023-06-14T04:29:50;19.60;76.60
27858;DHT22;16852;51.446;6.528;2023-06-14T04:31:57;19.60;75.40
27858;DHT22;16852;51.446;6.528;2023-06-14T04:33:59;19.70;75.50
27858;DHT22;16852;51.446;6.528;2023-06-14T04:36:00;19.70;75.60
27858;DHT22;16852;51.446;6.528;2023-06-14T04:38:01;19.80;75.40
27858;DHT22;16852;51.446;6.528;2023-06-14T04:40:02;19.80;75.00
27858;DHT22;16852;51.446;6.528;2023-06-14T04:42:05;19.80;74.70
27858;DHT22;16852;51.446;6.528;2023-06-14T04:44:07;19.90;74.00
27858;DHT22;16852;51.446;6.528;2023-06-14T04:46:08;19.90;73.10
27858;DHT22;16852;51.446;6.528;2023-06-14T04:48:11;19.90;73.40
27858;DHT22;16852;51.446;6.528;2023-06-14T04:50:12;19.90;73.60
27858;DHT22;16852;51.446;6.528;2023-06-14T04:52:13;19.90;73.40
27858;DHT22;16852;51.446;6.528;2023-06-14T04:54:14;19.90;73.60
27858;DHT22;16852;51.446;6.528;2023-06-14T04:56:15;20.00;74.00
27858;DHT22;16852;51.446;6.528;2023-06-14T04:58:17;20.10;74.10
27858;DHT22;16852;51.446;6.528;2023-06-14T05:00:18;20.10;74.00
27858;DHT22;16852;51.446;6.528;2023-06-14T05:02:18;20.10;73.20
27858;DHT22;16852;51.446;6.528;2023-06-14T05:04:19;20.10;73.50
27858;DHT22;16852;51.446;6.528;2023-06-14T05:06:20;20.20;73.90
27858;DHT22;16852;51.446;6.528;2023-06-14T05:08:21;20.20;75.30
27858;DHT22;16852;51.446;6.528;2023-06-14T05:10:25;20.30;75.50
27858;DHT22;16852;51.446;6.528;2023-06-14T05:12:25;20.00;73.10
27858;DHT22;16852;51.446;6.528;2023-06-14T05:14:26;19.90;73.20
27858;DHT22;16852;51.446;6.528;2023-06-14T05:16:27;19.80;74.10
27858;DHT22;16852;51.446;6.528;2023-06-14T05:18:27;19.70;74.00
27858;DHT22;16852;51.446;6.528;2023-06-14T05:20:28;19.70;74.50
27858;DHT22;16852;51.446;6.528;2023-06-14T05:22:29;19.60;71.80
27858;DHT22;16852;51.446;6.528;2023-06-14T05:24:30;19.60;71.60
27858;DHT22;16852;51.446;6.528;2023-06-14T05:26:32;19.50;72.00
27858;DHT22;16852;51.446;6.528;2023-06-14T05:28:33;19.50;72.40
27858;DHT22;16852;51.446;6.528;2023-06-14T05:30:34;19.60;72.50
27858;DHT22;16852;51.446;6.528;2023-06-14T05:32:35;19.50;72.20
27858;DHT22;16852;51.446;6.528;2023-06-14T05:34:35;19.50;71.40
27858;DHT22;16852;51.446;6.528;2023-06-14T05:36:36;19.60;71.80
27858;DHT22;16852;51.446;6.528;2023-06-14T05:38:37;19.60;71.60
27858;DHT22;16852;51.446;6.528;2023-06-14T05:40:37;19.70;71.80
27858;DHT22;16852;51.446;6.528;2023-06-14T05:42:38;19.60;70.50
27858;DHT22;16852;51.446;6.528;2023-06-14T05:44:39;19.70;71.10
27858;DHT22;16852;51.446;6.528;2023-06-14T05:46:39;19.80;70.90
27858;DHT22;16852;51.446;6.528;2023-06-14T05:48:40;20.10;70.60
27858;DHT22;16852;51.446;6.528;2023-06-14T05:50:41;20.50;69.10
27858;DHT22;16852;51.446;6.528;2023-06-14T05:52:41;20.90;68.40
27858;DHT22;16852;51.446;6.528;2023-06-14T05:54:42;21.20;67.40
27858;DHT22;16852;51.446;6.528;2023-06-14T05:56:42;21.60;67.20
27858;DHT22;16852;51.446;6.528;2023-06-14T05:58:44;21.90;65.80
27858;DHT22;16852;51.446;6.528;2023-06-14T06:00:45;22.00;64.50
27858;DHT22;16852;51.446;6.528;2023-06-14T06:02:46;22.20;64.60
27858;DHT22;16852;51.446;6.528;2023-06-14T06:04:47;22.50;63.90
27858;DHT22;16852;51.446;6.528;2023-06-14T06:06:48;22.80;63.20
27858;DHT22;16852;51.446;6.528;2023-06-14T06:08:49;23.10;61.60
27858;DHT22;16852;51.446;6.528;2023-06-14T06:10:50;23.20;61.90
27858;DHT22;16852;51.446;6.528;2023-06-14T06:12:51;23.50;61.00
27858;DHT22;16852;51.446;6.528;2023-06-14T06:14:52;23.80;61.70
27858;DHT22;16852;51.446;6.528;2023-06-14T06:16:54;23.80;61.20
27858;DHT22;16852;51.446;6.528;2023-06-14T06:18:54;23.90;59.60
27858;DHT22;16852;51.446;6.528;2023-06-14T06:20:55;24.00;59.90
27858;DHT22;16852;51.446;6.528;2023-06-14T06:22:56;24.40;60.80
27858;DHT22;16852;51.446;6.528;2023-06-14T06:24:57;24.40;58.40
27858;DHT22;16852;51.446;6.528;2023-06-14T06:26:58;24.50;58.80
27858;DHT22;16852;51.446;6.528;2023-06-14T06:28:58;24.60;58.80
27858;DHT22;16852;51.446;6.528;2023-06-14T06:30:59;24.70;58.60
27858;DHT22;16852;51.446;6.528;2023-06-14T06:33:00;24.90;58.40
27858;DHT22;16852;51.446;6.528;2023-06-14T06:35:00;24.90;57.80
27858;DHT22;16852;51.446;6.528;2023-06-14T06:37:01;24.70;57.80
27858;DHT22;16852;51.446;6.528;2023-06-14T06:39:02;24.90;57.80
27858;DHT22;16852;51.446;6.528;2023-06-14T06:41:09;25.10;58.00
27858;DHT22;16852;51.446;6.528;2023-06-14T06:43:10;25.00;58.00
27858;DHT22;16852;51.446;6.528;2023-06-14T06:45:13;25.10;57.90
27858;DHT22;16852;51.446;6.528;2023-06-14T06:47:14;25.10;57.10
27858;DHT22;16852;51.446;6.528;2023-06-14T06:49:15;24.80;56.70
27858;DHT22;16852;51.446;6.528;2023-06-14T06:51:15;24.70;57.60
27858;DHT22;16852;51.446;6.528;2023-06-14T06:53:16;24.50;58.30
27858;DHT22;16852;51.446;6.528;2023-06-14T06:55:18;24.70;58.10
27858;DHT22;16852;51.446;6.528;2023-06-14T06:57:19;24.60;58.50
27858;DHT22;16852;51.446;6.528;2023-06-14T06:59:20;24.50;58.00
27858;DHT22;16852;51.446;6.528;2023-06-14T07:01:21;24.40;57.50
27858;DHT22;16852;51.446;6.528;2023-06-14T07:03:22;24.50;58.70
27858;DHT22;16852;51.446;6.528;2023-06-14T07:05:23;24.50;58.70
27858;DHT22;16852;51.446;6.528;2023-06-14T07:07:24;24.40;58.70
27858;DHT22;16852;51.446;6.528;2023-06-14T07:09:25;24.20;58.50
27858;DHT22;16852;51.446;6.528;2023-06-14T07:11:25;24.10;58.80
27858;DHT22;16852;51.446;6.528;2023-06-14T07:13:26;24.10;58.00
27858;DHT22;16852;51.446;6.528;2023-06-14T07:15:26;23.90;58.00
27858;DHT22;16852;51.446;6.528;2023-06-14T07:17:27;24.10;58.10
27858;DHT22;16852;51.446;6.528;2023-06-14T07:19:28;24.10;57.00
27858;DHT22;16852;51.446;6.528;2023-06-14T07:21:28;24.10;58.30
27858;DHT22;16852;51.446;6.528;2023-06-14T07:23:29;24.20;57.30
27858;DHT22;16852;51.446;6.528;2023-06-14T07:25:30;24.20;58.50
27858;DHT22;16852;51.446;6.528;2023-06-14T07:27:30;24.40;58.30
27858;DHT22;16852;51.446;6.528;2023-06-14T07:29:31;24.50;56.50
27858;DHT22;16852;51.446;6.528;2023-06-14T07:31:31;24.30;56.70
27858;DHT22;16852;51.446;6.528;2023-06-14T07:33:32;24.20;56.50
27858;DHT22;16852;51.446;6.528;2023-06-14T07:35:33;24.30;56.50
27858;DHT22;16852;51.446;6.528;2023-06-14T07:37:33;24.20;55.70
27858;DHT22;16852;51.446;6.528;2023-06-14T07:39:34;24.20;56.70
27858;DHT22;16852;51.446;6.528;2023-06-14T07:41:34;24.30;56.50
27858;DHT22;16852;51.446;6.528;2023-06-14T07:43:35;24.20;55.70
27858;DHT22;16852;51.446;6.528;2023-06-14T07:45:36;24.20;56.20
27858;DHT22;16852;51.446;6.528;2023-06-14T07:47:37;24.30;55.90
27858;DHT22;16852;51.446;6.528;2023-06-14T07:49:38;24.20;56.10
27858;DHT22;16852;51.446;6.528;2023-06-14T07:51:38;24.20;56.20
27858;DHT22;16852;51.446;6.528;2023-06-14T07:53:39;24.30;56.30
27858;DHT22;16852;51.446;6.528;2023-06-14T07:55:41;24.30;56.40
27858;DHT22;16852;51.446;6.528;2023-06-14T07:57:43;24.40;56.30
27858;DHT22;16852;51.446;6.528;2023-06-14T07:59:44;24.40;56.10
27858;DHT22;16852;51.446;6.528;2023-06-14T08:01:45;24.50;55.70
27858;DHT22;16852;51.446;6.528;2023-06-14T08:03:47;24.40;55.40
27858;DHT22;16852;51.446;6.528;2023-06-14T08:05:48;24.40;55.30
27858;DHT22;16852;51.446;6.528;2023-06-14T08:07:48;24.50;56.70
27858;DHT22;16852;51.446;6.528;2023-06-14T08:09:49;24.70;55.80
27858;DHT22;16852;51.446;6.528;2023-06-14T08:11:49;24.70;54.50
27858;DHT22;16852;51.446;6.528;2023-06-14T08:13:50;24.70;54.30
27858;DHT22;16852;51.446;6.528;2023-06-14T08:15:51;24.70;54.90
27858;DHT22;16852;51.446;6.528;2023-06-14T08:17:51;24.70;55.20
27858;DHT22;16852;51.446;6.528;2023-06-14T08:19:52;24.90;55.60
27858;DHT22;16852;51.446;6.528;2023-06-14T08:21:57;25.10;55.40
27858;DHT22;16852;51.446;6.528;2023-06-14T08:23:58;24.90;55.40
27858;DHT22;16852;51.446;6.528;2023-06-14T08:25:59;25.10;56.20
27858;DHT22;16852;51.446;6.528;2023-06-14T08:28:01;25.10;55.70
27858;DHT22;16852;51.446;6.528;2023-06-14T08:30:03;25.10;55.00
27858;DHT22;16852;51.446;6.528;2023-06-14T08:32:04;25.20;56.90
27858;DHT22;16852;51.446;6.528;2023-06-14T08:34:05;25.30;55.50
27858;DHT22;16852;51.446;6.528;2023-06-14T08:36:06;25.10;55.60
27858;DHT22;16852;51.446;6.528;2023-06-14T08:38:07;25.10;56.00
27858;DHT22;16852;51.446;6.528;2023-06-14T08:40:28;25.10;56.40
27858;DHT22;16852;51.446;6.528;2023-06-14T08:42:30;25.10;57.90
27858;DHT22;16852;51.446;6.528;2023-06-14T08:44:31;25.20;56.30
27858;DHT22;16852;51.446;6.528;2023-06-14T08:46:33;25.30;55.90
27858;DHT22;16852;51.446;6.528;2023-06-14T08:48:34;25.30;55.70
27858;DHT22;16852;51.446;6.528;2023-06-14T08:50:36;25.40;57.70
27858;DHT22;16852;51.446;6.528;2023-06-14T08:52:41;25.50;57.20
27858;DHT22;16852;51.446;6.528;2023-06-14T08:54:49;25.20;56.00
27858;DHT22;16852;51.446;6.528;2023-06-14T08:56:51;25.20;56.40
27858;DHT22;16852;51.446;6.528;2023-06-14T08:58:52;25.10;55.90
27858;DHT22;16852;51.446;6.528;2023-06-14T09:00:53;25.10;56.80
27858;DHT22;16852;51.446;6.528;2023-06-14T09:02:54;25.20;57.10
27858;DHT22;16852;51.446;6.528;2023-06-14T09:04:58;25.10;56.50
27858;DHT22;16852;51.446;6.528;2023-06-14T09:06:59;25.30;59.80
27858;DHT22;16852;51.446;6.528;2023-06-14T09:09:00;25.40;60.20
27858;DHT22;16852;51.446;6.528;2023-06-14T09:11:02;25.60;58.10
27858;DHT22;16852;51.446;6.528;2023-06-14T09:13:03;25.60;59.10
27858;DHT22;16852;51.446;6.528;2023-06-14T09:15:05;25.80;58.70
27858;DHT22;16852;51.446;6.528;2023-06-14T09:17:06;26.10;59.10
27858;DHT22;16852;51.446;6.528;2023-06-14T09:19:07;26.20;56.10
27858;DHT22;16852;51.446;6.528;2023-06-14T09:21:08;25.80;54.80
27858;DHT22;16852;51.446;6.528;2023-06-14T09:23:09;25.50;54.90
27858;DHT22;16852;51.446;6.528;2023-06-14T09:25:09;25.40;55.20
27858;DHT22;16852;51.446;6.528;2023-06-14T09:27:15;25.50;56.40
27858;DHT22;16852;51.446;6.528;2023-06-14T09:29:17;25.40;57.30
27858;DHT22;16852;51.446;6.528;2023-06-14T09:31:19;25.50;62.10
27858;DHT22;16852;51.446;6.528;2023-06-14T09:33:20;25.70;62.30
27858;DHT22;16852;51.446;6.528;2023-06-14T09:35:21;25.90;59.00
27858;DHT22;16852;51.446;6.528;2023-06-14T09:37:29;25.90;55.60
27858;DHT22;16852;51.446;6.528;2023-06-14T09:39:30;25.40;55.30
27858;DHT22;16852;51.446;6.528;2023-06-14T09:41:38;25.20;56.60
27858;DHT22;16852;51.446;6.528;2023-06-14T09:43:39;25.10;56.80
27858;DHT22;16852;51.446;6.528;2023-06-14T09:45:40;25.00;57.20
27858;DHT22;16852;51.446;6.528;2023-06-14T09:47:42;25.00;57.10
27858;DHT22;16852;51.446;6.528;2023-06-14T09:49:44;25.10;58.00
27858;DHT22;16852;51.446;6.528;2023-06-14T09:51:45;25.20;58.40
27858;DHT22;16852;51.446;6.528;2023-06-14T09:53:50;25.30;60.30
27858;DHT22;16852;51.446;6.528;2023-06-14T09:55:52;25.40;56.60
27858;DHT22;16852;51.446;6.528;2023-06-14T09:57:57;25.20;56.50
27858;DHT22;16852;51.446;6.528;2023-06-14T09:59:58;25.00;56.30
27858;DHT22;16852;51.446;6.528;2023-06-14T10:02:02;25.20;57.30
27858;DHT22;16852;51.446;6.528;2023-06-14T10:04:06;25.40;57.50
27858;DHT22;16852;51.446;6.528;2023-06-14T10:06:08;25.10;56.00
27858;DHT22;16852;51.446;6.528;2023-06-14T10:08:11;25.00;57.00
27858;DHT22;16852;51.446;6.528;2023-06-14T10:10:13;24.70;56.50
27858;DHT22;16852;51.446;6.528;2023-06-14T10:12:14;25.00;58.30
27858;DHT22;16852;51.446;6.528;2023-06-14T10:14:21;25.10;57.10
27858;DHT22;16852;51.446;6.528;2023-06-14T10:17:02;25.10;57.80
27858;DHT22;16852;51.446;6.528;2023-06-14T10:19:21;25.10;56.10
27858;DHT22;16852;51.446;6.528;2023-06-14T10:21:25;25.20;56.80
27858;DHT22;16852;51.446;6.528;2023-06-14T10:23:29;25.30;56.70
27858;DHT22;16852;51.446;6.528;2023-06-14T10:25:31;25.20;55.90
27858;DHT22;16852;51.446;6.528;2023-06-14T10:27:32;25.00;55.80
27858;DHT22;16852;51.446;6.528;2023-06-14T10:29:32;24.90;55.70
27858;DHT22;16852;51.446;6.528;2023-06-14T10:31:43;24.80;56.20
27858;DHT22;16852;51.446;6.528;2023-06-14T10:33:56;24.90;56.60
27858;DHT22;16852;51.446;6.528;2023-06-14T10:36:07;24.90;56.10
27858;DHT22;16852;51.446;6.528;2023-06-14T10:38:12;25.10;61.90
27858;DHT22;16852;51.446;6.528;2023-06-14T10:40:30;25.30;58.60
27858;DHT22;16852;51.446;6.528;2023-06-14T10:42:33;25.10;55.10
27858;DHT22;16852;51.446;6.528;2023-06-14T10:44:39;24.90;56.50
27858;DHT22;16852;51.446;6.528;2023-06-14T10:46:41;25.10;56.70
27858;DHT22;16852;51.446;6.528;2023-06-14T10:48:46;25.30;56.80
27858;DHT22;16852;51.446;6.528;2023-06-14T10:50:47;25.40;56.00
27858;DHT22;16852;51.446;6.528;2023-06-14T10:52:49;25.30;53.90
27858;DHT22;16852;51.446;6.528;2023-06-14T10:55:12;24.90;54.10
27858;DHT22;16852;51.446;6.528;2023-06-14T10:57:14;25.00;54.60
27858;DHT22;16852;51.446;6.528;2023-06-14T10:59:17;25.20;56.90
27858;DHT22;16852;51.446;6.528;2023-06-14T11:01:36;25.30;55.20
27858;DHT22;16852;51.446;6.528;2023-06-14T11:03:51;25.10;53.40
27858;DHT22;16852;51.446;6.528;2023-06-14T11:05:57;25.10;54.60
27858;DHT22;16852;51.446;6.528;2023-06-14T11:10:30;25.40;55.80
27858;DHT22;16852;51.446;6.528;2023-06-14T11:12:36;25.10;54.40
27858;DHT22;16852;51.446;6.528;2023-06-14T11:14:38;25.20;55.20
27858;DHT22;16852;51.446;6.528;2023-06-14T11:16:39;25.20;53.90
27858;DHT22;16852;51.446;6.528;2023-06-14T11:18:41;25.20;54.60
27858;DHT22;16852;51.446;6.528;2023-06-14T11:20:42;25.30;55.70
27858;DHT22;16852;51.446;6.528;2023-06-14T11:22:43;25.30;54.30
27858;DHT22;16852;51.446;6.528;2023-06-14T11:24:43;25.20;54.80
27858;DHT22;16852;51.446;6.528;2023-06-14T11:26:47;25.30;54.90
27858;DHT22;16852;51.446;6.528;2023-06-14T11:28:47;25.50;55.70
27858;DHT22;16852;51.446;6.528;2023-06-14T11:30:49;25.60;53.90
27858;DHT22;16852;51.446;6.528;2023-06-14T11:32:59;25.40;54.30
27858;DHT22;16852;51.446;6.528;2023-06-14T11:35:00;25.40;53.70
27858;DHT22;16852;51.446;6.528;2023-06-14T11:37:01;25.30;53.70
27858;DHT22;16852;51.446;6.528;2023-06-14T11:39:03;25.10;53.70
27858;DHT22;16852;51.446;6.528;2023-06-14T11:41:04;25.10;54.70
27858;DHT22;16852;51.446;6.528;2023-06-14T11:43:05;25.20;54.70
27858;DHT22;16852;51.446;6.528;2023-06-14T11:45:10;25.00;53.40
27858;DHT22;16852;51.446;6.528;2023-06-14T11:47:11;24.90;54.80
27858;DHT22;16852;51.446;6.528;2023-06-14T11:49:12;25.00;55.10
27858;DHT22;16852;51.446;6.528;2023-06-14T11:51:12;24.90;54.60
27858;DHT22;16852;51.446;6.528;2023-06-14T11:53:14;25.00;55.00
27858;DHT22;16852;51.446;6.528;2023-06-14T11:55:17;24.90;54.70
27858;DHT22;16852;51.446;6.528;2023-06-14T11:57:18;24.80;54.30
27858;DHT22;16852;51.446;6.528;2023-06-14T11:59:20;24.80;55.40
27858;DHT22;16852;51.446;6.528;2023-06-14T12:01:21;24.90;55.60
27858;DHT22;16852;51.446;6.528;2023-06-14T12:03:25;25.10;55.10
27858;DHT22;16852;51.446;6.528;2023-06-14T12:05:27;24.70;54.20
27858;DHT22;16852;51.446;6.528;2023-06-14T12:07:30;24.90;54.70
27858;DHT22;16852;51.446;6.528;2023-06-14T12:09:32;24.90;55.00
27858;DHT22;16852;51.446;6.528;2023-06-14T12:11:34;25.00;55.60
27858;DHT22;16852;51.446;6.528;2023-06-14T12:13:37;25.10;54.50
27858;DHT22;16852;51.446;6.528;2023-06-14T12:15:38;25.10;54.00
27858;DHT22;16852;51.446;6.528;2023-06-14T12:17:39;25.10;53.90
27858;DHT22;16852;51.446;6.528;2023-06-14T12:19:43;25.10;52.40
27858;DHT22;16852;51.446;6.528;2023-06-14T12:21:46;25.20;52.90
27858;DHT22;16852;51.446;6.528;2023-06-14T12:23:49;25.20;53.60
27858;DHT22;16852;51.446;6.528;2023-06-14T12:25:51;25.20;53.80
27858;DHT22;16852;51.446;6.528;2023-06-14T12:27:54;25.30;53.50
27858;DHT22;16852;51.446;6.528;2023-06-14T12:30:01;25.30;55.40
27858;DHT22;16852;51.446;6.528;2023-06-14T12:32:03;25.50;56.00
27858;DHT22;16852;51.446;6.528;2023-06-14T12:34:03;25.50;54.90
27858;DHT22;16852;51.446;6.528;2023-06-14T12:36:05;25.50;54.30
27858;DHT22;16852;51.446;6.528;2023-06-14T12:38:06;25.50;54.10
27858;DHT22;16852;51.446;6.528;2023-06-14T12:40:08;25.40;52.70
27858;DHT22;16852;51.446;6.528;2023-06-14T12:42:09;25.40;52.90
27858;DHT22;16852;51.446;6.528;2023-06-14T12:44:11;25.40;53.80
27858;DHT22;16852;51.446;6.528;2023-06-14T12:46:11;25.40;54.00
27858;DHT22;16852;51.446;6.528;2023-06-14T12:48:12;25.40;53.00
27858;DHT22;16852;51.446;6.528;2023-06-14T12:50:12;25.40;54.30
27858;DHT22;16852;51.446;6.528;2023-06-14T12:52:13;25.30;53.80
27858;DHT22;16852;51.446;6.528;2023-06-14T12:54:13;25.30;54.10
27858;DHT22;16852;51.446;6.528;2023-06-14T12:56:15;25.40;54.30